sensor_id;sensor_type;location;lat;lon;timestamp;temperature;humidity
20345;DHT22;10330;48.816;9.278;2022-11-15T00:08:48;10.10;99.90
20345;DHT22;10330;48.816;9.278;2022-11-15T00:11:33;10.20;99.90
20345;DHT22;10330;48.816;9.278;2022-11-15T00:14:18;10.20;99.90
20345;DHT22;10330;48.816;9.278;2022-11-15T00:17:02;10.20;99.90
20345;DHT22;10330;48.816;9.278;2022-11-15T00:19:47;10.30;99.90
20345;DHT22;10330;48.816;9.278;2022-11-15T00:22:32;10.30;99.90
20345;DHT22;10330;48.816;9.278;2022-11-15T00:25:17;10.30;99.90
20345;DHT22;10330;48.816;9.278;2022-11-15T00:28:02;10.30;99.90
20345;DHT22;10330;48.816;9.278;2022-11-15T00:30:47;10.30;99.90
20345;DHT22;10330;48.816;9.278;2022-11-15T00:33:32;10.30;99.90
20345;DHT22;10330;48.816;9.278;2022-11-15T00:36:16;10.30;99.90
20345;DHT22;10330;48.816;9.278;2022-11-15T00:39:03;10.30;99.90
20345;DHT22;10330;48.816;9.278;2022-11-15T00:41:48;10.20;99.90
20345;DHT22;10330;48.816;9.278;2022-11-15T00:44:33;10.40;99.90
20345;DHT22;10330;48.816;9.278;2022-11-15T00:47:17;10.30;99.90
20345;DHT22;10330;48.816;9.278;2022-11-15T00:50:02;10.30;99.90
20345;DHT22;10330;48.816;9.278;2022-11-15T00:52:47;10.30;99.90
20345;DHT22;10330;48.816;9.278;2022-11-15T00:55:32;10.30;99.90
20345;DHT22;10330;48.816;9.278;2022-11-15T00:58:16;10.20;99.90
20345;DHT22;10330;48.816;9.278;2022-11-15T01:01:09;10.20;99.90
20345;DHT22;10330;48.816;9.278;2022-11-15T01:03:54;10.20;99.90
20345;DHT22;10330;48.816;9.278;2022-11-15T01:06:39;10.10;99.90
20345;DHT22;10330;48.816;9.278;2022-11-15T01:09:26;10.10;99.90
20345;DHT22;10330;48.816;9.278;2022-11-15T01:12:11;10.10;99.90
20345;DHT22;10330;48.816;9.278;2022-11-15T01:14:56;10.00;99.90
20345;DHT22;10330;48.816;9.278;2022-11-15T01:17:40;10.00;99.90
20345;DHT22;10330;48.816;9.278;2022-11-15T01:20:25;10.00;99.90
20345;DHT22;10330;48.816;9.278;2022-11-15T01:23:09;10.00;99.90
20345;DHT22;10330;48.816;9.278;2022-11-15T01:25:59;9.90;99.90
20345;DHT22;10330;48.816;9.278;2022-11-15T01:28:44;9.90;99.90
20345;DHT22;10330;48.816;9.278;2022-11-15T01:31:29;9.90;99.90
20345;DHT22;10330;48.816;9.278;2022-11-15T01:34:14;9.80;99.90
20345;DHT22;10330;48.816;9.278;2022-11-15T01:36:59;9.70;99.90
20345;DHT22;10330;48.816;9.278;2022-11-15T01:39:44;9.60;99.90
20345;DHT22;10330;48.816;9.278;2022-11-15T01:42:28;9.50;99.90
20345;DHT22;10330;48.816;9.278;2022-11-15T01:45:16;9.50;99.90
20345;DHT22;10330;48.816;9.278;2022-11-15T01:48:01;9.40;99.90
20345;DHT22;10330;48.816;9.278;2022-11-15T01:50:46;9.30;99.90
20345;DHT22;10330;48.816;9.278;2022-11-15T01:53:32;9.30;99.90
20345;DHT22;10330;48.816;9.278;2022-11-15T01:56:23;9.30;99.90
20345;DHT22;10330;48.816;9.278;2022-11-15T01:59:10;9.30;99.90
20345;DHT22;10330;48.816;9.278;2022-11-15T02:01:55;9.30;99.90
20345;DHT22;10330;48.816;9.278;2022-11-15T02:04:41;9.30;99.90
20345;DHT22;10330;48.816;9.278;2022-11-15T02:07:28;9.20;99.90
20345;DHT22;10330;48.816;9.278;2022-11-15T02:10:18;9.20;99.90
20345;DHT22;10330;48.816;9.278;2022-11-15T02:13:03;9.20;99.90
20345;DHT22;10330;48.816;9.278;2022-11-15T02:16:06;9.20;99.90
20345;DHT22;10330;48.816;9.278;2022-11-15T02:19:02;9.20;99.90
20345;DHT22;10330;48.816;9.278;2022-11-15T02:34:50;9.20;99.90
20345;DHT22;10330;48.816;9.278;2022-11-15T02:40:49;9.30;99.90
20345;DHT22;10330;48.816;9.278;2022-11-15T02:43:47;9.30;99.90
20345;DHT22;10330;48.816;9.278;2022-11-15T02:46:48;9.20;99.90
20345;DHT22;10330;48.816;9.278;2022-11-15T02:49:54;9.20;99.90
20345;DHT22;10330;48.816;9.278;2022-11-15T02:52:45;9.20;99.90
20345;DHT22;10330;48.816;9.278;2022-11-15T02:55:35;9.20;99.90
20345;DHT22;10330;48.816;9.278;2022-11-15T02:58:32;9.20;99.90
20345;DHT22;10330;48.816;9.278;2022-11-15T03:07:07;9.20;99.90
20345;DHT22;10330;48.816;9.278;2022-11-15T03:10:06;9.20;99.90
20345;DHT22;10330;48.816;9.278;2022-11-15T03:12:59;9.20;99.90
20345;DHT22;10330;48.816;9.278;2022-11-15T03:19:37;9.10;99.90
20345;DHT22;10330;48.816;9.278;2022-11-15T03:22:04;9.10;99.90
20345;DHT22;10330;48.816;9.278;2022-11-15T03:24:59;9.00;99.90
20345;DHT22;10330;48.816;9.278;2022-11-15T03:27:49;8.90;99.90
20345;DHT22;10330;48.816;9.278;2022-11-15T03:30:36;8.80;99.90
20345;DHT22;10330;48.816;9.278;2022-11-15T03:33:22;8.80;99.90
20345;DHT22;10330;48.816;9.278;2022-11-15T03:36:06;8.70;99.90
20345;DHT22;10330;48.816;9.278;2022-11-15T03:38:54;8.60;99.90
20345;DHT22;10330;48.816;9.278;2022-11-15T03:44:40;8.50;99.90
20345;DHT22;10330;48.816;9.278;2022-11-15T03:47:39;8.50;99.90
20345;DHT22;10330;48.816;9.278;2022-11-15T03:50:26;8.50;99.90
20345;DHT22;10330;48.816;9.278;2022-11-15T03:53:12;8.50;99.90
20345;DHT22;10330;48.816;9.278;2022-11-15T03:55:58;8.40;99.90
20345;DHT22;10330;48.816;9.278;2022-11-15T03:58:42;8.50;99.90
20345;DHT22;10330;48.816;9.278;2022-11-15T04:01:27;8.40;99.90
20345;DHT22;10330;48.816;9.278;2022-11-15T04:04:12;8.40;99.90
20345;DHT22;10330;48.816;9.278;2022-11-15T04:06:57;8.40;99.90
20345;DHT22;10330;48.816;9.278;2022-11-15T04:09:41;8.40;99.90
20345;DHT22;10330;48.816;9.278;2022-11-15T04:12:45;8.40;99.90
20345;DHT22;10330;48.816;9.278;2022-11-15T04:15:32;8.40;99.90
20345;DHT22;10330;48.816;9.278;2022-11-15T04:18:16;8.30;99.90
20345;DHT22;10330;48.816;9.278;2022-11-15T04:21:01;8.30;99.90
20345;DHT22;10330;48.816;9.278;2022-11-15T04:24:04;8.40;99.90
20345;DHT22;10330;48.816;9.278;2022-11-15T04:26:49;8.30;99.90
20345;DHT22;10330;48.816;9.278;2022-11-15T04:29:34;8.30;99.90
20345;DHT22;10330;48.816;9.278;2022-11-15T04:32:19;8.30;99.90
20345;DHT22;10330;48.816;9.278;2022-11-15T04:35:04;8.30;99.90
20345;DHT22;10330;48.816;9.278;2022-11-15T04:37:49;8.30;99.90
20345;DHT22;10330;48.816;9.278;2022-11-15T04:40:35;8.30;99.90
20345;DHT22;10330;48.816;9.278;2022-11-15T04:43:20;8.30;99.90
20345;DHT22;10330;48.816;9.278;2022-11-15T04:46:05;8.20;99.90
20345;DHT22;10330;48.816;9.278;2022-11-15T04:48:50;8.30;99.90
20345;DHT22;10330;48.816;9.278;2022-11-15T04:51:35;8.30;99.90
20345;DHT22;10330;48.816;9.278;2022-11-15T04:54:20;8.30;99.90
20345;DHT22;10330;48.816;9.278;2022-11-15T04:57:06;8.20;99.90
20345;DHT22;10330;48.816;9.278;2022-11-15T04:59:51;8.20;99.90
20345;DHT22;10330;48.816;9.278;2022-11-15T05:02:36;8.20;99.90
20345;DHT22;10330;48.816;9.278;2022-11-15T05:05:39;8.10;99.90
20345;DHT22;10330;48.816;9.278;2022-11-15T05:08:25;8.10;99.90
20345;DHT22;10330;48.816;9.278;2022-11-15T05:11:10;8.00;99.90
20345;DHT22;10330;48.816;9.278;2022-11-15T05:13:55;8.00;99.90
20345;DHT22;10330;48.816;9.278;2022-11-15T05:16:40;7.90;99.90
20345;DHT22;10330;48.816;9.278;2022-11-15T05:19:25;8.00;99.90
20345;DHT22;10330;48.816;9.278;2022-11-15T05:22:10;8.00;99.90
20345;DHT22;10330;48.816;9.278;2022-11-15T05:24:54;7.90;99.90
20345;DHT22;10330;48.816;9.278;2022-11-15T05:27:39;8.00;99.90
20345;DHT22;10330;48.816;9.278;2022-11-15T05:30:24;8.00;99.90
20345;DHT22;10330;48.816;9.278;2022-11-15T05:33:08;7.90;99.90
20345;DHT22;10330;48.816;9.278;2022-11-15T05:36:10;7.90;99.90
20345;DHT22;10330;48.816;9.278;2022-11-15T05:38:56;7.90;99.90
20345;DHT22;10330;48.816;9.278;2022-11-15T05:41:46;7.90;99.90
20345;DHT22;10330;48.816;9.278;2022-11-15T05:44:32;7.90;99.90
20345;DHT22;10330;48.816;9.278;2022-11-15T05:47:23;7.80;99.90
20345;DHT22;10330;48.816;9.278;2022-11-15T05:50:16;7.80;99.90
20345;DHT22;10330;48.816;9.278;2022-11-15T05:53:01;7.80;99.90
20345;DHT22;10330;48.816;9.278;2022-11-15T05:55:47;7.90;99.90
20345;DHT22;10330;48.816;9.278;2022-11-15T05:58:32;7.90;99.90
20345;DHT22;10330;48.816;9.278;2022-11-15T06:01:17;7.90;99.90
20345;DHT22;10330;48.816;9.278;2022-11-15T06:04:02;7.80;99.90
20345;DHT22;10330;48.816;9.278;2022-11-15T06:06:47;7.80;99.90
20345;DHT22;10330;48.816;9.278;2022-11-15T06:09:32;7.80;99.90
20345;DHT22;10330;48.816;9.278;2022-11-15T06:12:16;7.80;99.90
20345;DHT22;10330;48.816;9.278;2022-11-15T06:15:04;7.80;99.90
20345;DHT22;10330;48.816;9.278;2022-11-15T06:17:49;7.80;99.90
20345;DHT22;10330;48.816;9.278;2022-11-15T06:20:34;7.80;99.90
20345;DHT22;10330;48.816;9.278;2022-11-15T06:23:18;7.80;99.90
20345;DHT22;10330;48.816;9.278;2022-11-15T06:26:03;7.80;99.90
20345;DHT22;10330;48.816;9.278;2022-11-15T06:28:48;7.90;99.90
20345;DHT22;10330;48.816;9.278;2022-11-15T06:31:34;7.90;99.90
20345;DHT22;10330;48.816;9.278;2022-11-15T06:34:19;7.90;99.90
20345;DHT22;10330;48.816;9.278;2022-11-15T06:37:03;7.90;99.90
20345;DHT22;10330;48.816;9.278;2022-11-15T06:39:48;7.80;99.90
20345;DHT22;10330;48.816;9.278;2022-11-15T06:42:32;7.80;99.90
20345;DHT22;10330;48.816;9.278;2022-11-15T06:45:17;7.80;99.90
20345;DHT22;10330;48.816;9.278;2022-11-15T06:48:01;7.80;99.90
20345;DHT22;10330;48.816;9.278;2022-11-15T06:50:54;7.80;99.90
20345;DHT22;10330;48.816;9.278;2022-11-15T06:53:39;7.90;99.90
20345;DHT22;10330;48.816;9.278;2022-11-15T06:56:23;7.90;99.90
20345;DHT22;10330;48.816;9.278;2022-11-15T06:59:08;7.90;99.90
20345;DHT22;10330;48.816;9.278;2022-11-15T07:01:52;7.90;99.90
20345;DHT22;10330;48.816;9.278;2022-11-15T07:04:37;7.90;99.90
20345;DHT22;10330;48.816;9.278;2022-11-15T07:07:21;7.90;99.90
20345;DHT22;10330;48.816;9.278;2022-11-15T07:10:07;8.00;99.90
20345;DHT22;10330;48.816;9.278;2022-11-15T07:12:53;8.00;99.90
20345;DHT22;10330;48.816;9.278;2022-11-15T07:15:38;8.00;99.90
20345;DHT22;10330;48.816;9.278;2022-11-15T07:18:23;8.10;99.90
20345;DHT22;10330;48.816;9.278;2022-11-15T07:21:10;8.20;99.90
20345;DHT22;10330;48.816;9.278;2022-11-15T07:23:55;8.20;99.90
20345;DHT22;10330;48.816;9.278;2022-11-15T07:26:40;8.20;99.90
20345;DHT22;10330;48.816;9.278;2022-11-15T07:29:25;8.20;99.90
20345;DHT22;10330;48.816;9.278;2022-11-15T07:32:10;8.30;99.90
20345;DHT22;10330;48.816;9.278;2022-11-15T07:34:55;8.30;99.90
20345;DHT22;10330;48.816;9.278;2022-11-15T07:37:39;8.50;99.90
20345;DHT22;10330;48.816;9.278;2022-11-15T07:40:26;8.50;99.90
20345;DHT22;10330;48.816;9.278;2022-11-15T07:43:11;8.60;99.90
20345;DHT22;10330;48.816;9.278;2022-11-15T07:45:56;8.70;99.90
20345;DHT22;10330;48.816;9.278;2022-11-15T07:48:41;8.90;99.90
20345;DHT22;10330;48.816;9.278;2022-11-15T07:51:26;8.90;99.90
20345;DHT22;10330;48.816;9.278;2022-11-15T07:54:10;9.00;99.90
20345;DHT22;10330;48.816;9.278;2022-11-15T07:56:58;9.20;99.90
20345;DHT22;10330;48.816;9.278;2022-11-15T07:59:42;9.40;99.90
20345;DHT22;10330;48.816;9.278;2022-11-15T08:02:27;9.60;99.90
20345;DHT22;10330;48.816;9.278;2022-11-15T08:05:12;9.70;99.90
20345;DHT22;10330;48.816;9.278;2022-11-15T08:07:56;9.90;99.90
20345;DHT22;10330;48.816;9.278;2022-11-15T08:10:41;10.10;99.90
20345;DHT22;10330;48.816;9.278;2022-11-15T08:13:27;10.20;99.90
20345;DHT22;10330;48.816;9.278;2022-11-15T08:16:12;10.40;99.90
20345;DHT22;10330;48.816;9.278;2022-11-15T08:18:57;10.60;99.90
20345;DHT22;10330;48.816;9.278;2022-11-15T08:21:45;10.60;99.90
20345;DHT22;10330;48.816;9.278;2022-11-15T08:24:29;10.70;99.90
20345;DHT22;10330;48.816;9.278;2022-11-15T08:27:14;10.80;99.90
20345;DHT22;10330;48.816;9.278;2022-11-15T08:29:59;10.80;99.90
20345;DHT22;10330;48.816;9.278;2022-11-15T08:32:44;10.80;99.90
20345;DHT22;10330;48.816;9.278;2022-11-15T08:35:29;10.80;99.90
20345;DHT22;10330;48.816;9.278;2022-11-15T08:38:14;10.80;99.90
20345;DHT22;10330;48.816;9.278;2022-11-15T08:41:02;10.90;99.90
20345;DHT22;10330;48.816;9.278;2022-11-15T08:43:50;10.90;99.90
20345;DHT22;10330;48.816;9.278;2022-11-15T08:46:35;10.90;99.90
20345;DHT22;10330;48.816;9.278;2022-11-15T08:49:19;10.90;99.90
20345;DHT22;10330;48.816;9.278;2022-11-15T08:52:04;10.90;99.90
20345;DHT22;10330;48.816;9.278;2022-11-15T08:54:54;11.00;99.90
20345;DHT22;10330;48.816;9.278;2022-11-15T08:57:39;11.00;99.90
20345;DHT22;10330;48.816;9.278;2022-11-15T09:00:24;11.10;99.90
20345;DHT22;10330;48.816;9.278;2022-11-15T09:03:12;11.20;99.90
20345;DHT22;10330;48.816;9.278;2022-11-15T09:06:06;11.20;99.90
20345;DHT22;10330;48.816;9.278;2022-11-15T09:09:06;11.40;99.90
20345;DHT22;10330;48.816;9.278;2022-11-15T09:12:08;11.50;99.90
20345;DHT22;10330;48.816;9.278;2022-11-15T09:14:56;11.80;99.90
20345;DHT22;10330;48.816;9.278;2022-11-15T09:17:45;11.90;99.90
20345;DHT22;10330;48.816;9.278;2022-11-15T09:20:37;12.00;99.90
20345;DHT22;10330;48.816;9.278;2022-11-15T09:23:30;12.20;99.90
20345;DHT22;10330;48.816;9.278;2022-11-15T09:26:27;12.40;99.90
20345;DHT22;10330;48.816;9.278;2022-11-15T09:32:29;12.60;99.90
20345;DHT22;10330;48.816;9.278;2022-11-15T09:35:32;12.70;99.90
20345;DHT22;10330;48.816;9.278;2022-11-15T09:38:37;12.90;99.90
20345;DHT22;10330;48.816;9.278;2022-11-15T09:41:43;13.10;99.90
20345;DHT22;10330;48.816;9.278;2022-11-15T09:50:56;13.40;99.90
20345;DHT22;10330;48.816;9.278;2022-11-15T09:53:46;13.50;99.90
20345;DHT22;10330;48.816;9.278;2022-11-15T09:56:40;13.70;99.90
20345;DHT22;10330;48.816;9.278;2022-11-15T10:05:09;14.10;99.90
20345;DHT22;10330;48.816;9.278;2022-11-15T10:13:02;14.80;99.90
20345;DHT22;10330;48.816;9.278;2022-11-15T10:15:29;15.00;99.90
20345;DHT22;10330;48.816;9.278;2022-11-15T10:18:00;15.10;99.90
20345;DHT22;10330;48.816;9.278;2022-11-15T10:20:29;15.10;99.90
20345;DHT22;10330;48.816;9.278;2022-11-15T10:22:59;15.20;99.90
20345;DHT22;10330;48.816;9.278;2022-11-15T10:25:28;15.20;99.90
20345;DHT22;10330;48.816;9.278;2022-11-15T10:30:37;15.20;99.90
20345;DHT22;10330;48.816;9.278;2022-11-15T10:33:34;15.10;99.90
20345;DHT22;10330;48.816;9.278;2022-11-15T10:39:04;15.00;99.90
20345;DHT22;10330;48.816;9.278;2022-11-15T10:41:35;15.00;99.90
20345;DHT22;10330;48.816;9.278;2022-11-15T10:46:38;14.90;99.90
20345;DHT22;10330;48.816;9.278;2022-11-15T10:49:26;15.00;99.90
20345;DHT22;10330;48.816;9.278;2022-11-15T10:52:00;14.90;99.90
20345;DHT22;10330;48.816;9.278;2022-11-15T10:54:37;14.90;99.90
20345;DHT22;10330;48.816;9.278;2022-11-15T10:57:13;14.80;99.90
20345;DHT22;10330;48.816;9.278;2022-11-15T10:59:45;14.90;99.90
20345;DHT22;10330;48.816;9.278;2022-11-15T11:02:38;14.90;99.90
20345;DHT22;10330;48.816;9.278;2022-11-15T11:05:37;14.80;99.90
20345;DHT22;10330;48.816;9.278;2022-11-15T11:08:20;14.80;99.90
20345;DHT22;10330;48.816;9.278;2022-11-15T11:10:58;14.70;99.90
20345;DHT22;10330;48.816;9.278;2022-11-15T11:13:30;14.60;99.90
20345;DHT22;10330;48.816;9.278;2022-11-15T11:24:23;14.30;99.90
20345;DHT22;10330;48.816;9.278;2022-11-15T11:27:18;14.30;99.90
20345;DHT22;10330;48.816;9.278;2022-11-15T11:35:24;14.30;99.90
20345;DHT22;10330;48.816;9.278;2022-11-15T11:40:34;14.30;99.90
20345;DHT22;10330;48.816;9.278;2022-11-15T11:48:44;14.50;99.90
20345;DHT22;10330;48.816;9.278;2022-11-15T11:51:24;14.60;99.90
20345;DHT22;10330;48.816;9.278;2022-11-15T11:54:09;14.70;99.90
20345;DHT22;10330;48.816;9.278;2022-11-15T11:56:41;14.70;99.90
20345;DHT22;10330;48.816;9.278;2022-11-15T12:02:27;14.80;99.90
20345;DHT22;10330;48.816;9.278;2022-11-15T12:05:03;14.80;99.90
20345;DHT22;10330;48.816;9.278;2022-11-15T12:07:35;14.90;99.90
20345;DHT22;10330;48.816;9.278;2022-11-15T12:13:05;15.10;99.90
20345;DHT22;10330;48.816;9.278;2022-11-15T12:15:43;15.20;99.90
20345;DHT22;10330;48.816;9.278;2022-11-15T12:18:14;15.30;99.90
20345;DHT22;10330;48.816;9.278;2022-11-15T12:20:55;15.30;99.90
20345;DHT22;10330;48.816;9.278;2022-11-15T12:23:32;15.50;99.90
20345;DHT22;10330;48.816;9.278;2022-11-15T12:26:08;15.50;99.90
20345;DHT22;10330;48.816;9.278;2022-11-15T12:28:46;15.50;99.90
20345;DHT22;10330;48.816;9.278;2022-11-15T12:31:21;15.50;99.90
20345;DHT22;10330;48.816;9.278;2022-11-15T12:33:49;15.40;99.90
20345;DHT22;10330;48.816;9.278;2022-11-15T12:39:00;15.40;99.90
20345;DHT22;10330;48.816;9.278;2022-11-15T12:43:55;15.20;99.90
20345;DHT22;10330;48.816;9.278;2022-11-15T12:49:00;14.90;99.90
20345;DHT22;10330;48.816;9.278;2022-11-15T13:02:36;14.70;99.90
20345;DHT22;10330;48.816;9.278;2022-11-15T13:05:51;14.80;99.90
20345;DHT22;10330;48.816;9.278;2022-11-15T13:08:37;14.70;99.90
20345;DHT22;10330;48.816;9.278;2022-11-15T13:11:42;14.70;99.90
20345;DHT22;10330;48.816;9.278;2022-11-15T13:14:50;14.80;99.90
20345;DHT22;10330;48.816;9.278;2022-11-15T13:17:36;14.80;99.90
20345;DHT22;10330;48.816;9.278;2022-11-15T13:33:21;14.70;99.90
20345;DHT22;10330;48.816;9.278;2022-11-15T13:35:52;14.80;99.90
20345;DHT22;10330;48.816;9.278;2022-11-15T13:40:56;14.70;99.90
20345;DHT22;10330;48.816;9.278;2022-11-15T13:46:17;14.70;99.90
20345;DHT22;10330;48.816;9.278;2022-11-15T13:48:47;14.70;99.90
20345;DHT22;10330;48.816;9.278;2022-11-15T13:54:37;14.70;99.90
20345;DHT22;10330;48.816;9.278;2022-11-15T13:57:15;14.70;99.90
20345;DHT22;10330;48.816;9.278;2022-11-15T14:00:01;14.70;99.90
20345;DHT22;10330;48.816;9.278;2022-11-15T14:02:37;14.60;99.90
20345;DHT22;10330;48.816;9.278;2022-11-15T14:05:22;14.60;99.90
20345;DHT22;10330;48.816;9.278;2022-11-15T14:10:35;14.50;99.90
20345;DHT22;10330;48.816;9.278;2022-11-15T14:13:03;14.50;99.90
20345;DHT22;10330;48.816;9.278;2022-11-15T14:15:38;14.40;99.90
20345;DHT22;10330;48.816;9.278;2022-11-15T14:18:05;14.40;99.90
20345;DHT22;10330;48.816;9.278;2022-11-15T14:20:35;14.30;99.90
20345;DHT22;10330;48.816;9.278;2022-11-15T14:23:26;14.20;99.90
20345;DHT22;10330;48.816;9.278;2022-11-15T14:25:56;14.20;99.90
20345;DHT22;10330;48.816;9.278;2022-11-15T14:30:53;14.10;99.90
20345;DHT22;10330;48.816;9.278;2022-11-15T14:33:21;14.10;99.90
20345;DHT22;10330;48.816;9.278;2022-11-15T14:35:48;14.00;99.90
20345;DHT22;10330;48.816;9.278;2022-11-15T14:38:15;13.90;99.90
20345;DHT22;10330;48.816;9.278;2022-11-15T14:40:42;13.90;99.90
20345;DHT22;10330;48.816;9.278;2022-11-15T14:43:13;13.90;99.90
20345;DHT22;10330;48.816;9.278;2022-11-15T14:45:39;13.80;99.90
20345;DHT22;10330;48.816;9.278;2022-11-15T14:48:06;13.80;99.90
20345;DHT22;10330;48.816;9.278;2022-11-15T14:50:33;13.80;99.90
20345;DHT22;10330;48.816;9.278;2022-11-15T14:53:00;13.70;99.90
20345;DHT22;10330;48.816;9.278;2022-11-15T14:55:29;13.70;99.90
20345;DHT22;10330;48.816;9.278;2022-11-15T14:57:58;13.60;99.90
20345;DHT22;10330;48.816;9.278;2022-11-15T15:00:25;13.50;99.90
20345;DHT22;10330;48.816;9.278;2022-11-15T15:02:53;13.50;99.90
20345;DHT22;10330;48.816;9.278;2022-11-15T15:07:58;13.40;99.90
20345;DHT22;10330;48.816;9.278;2022-11-15T15:10:26;13.40;99.90
20345;DHT22;10330;48.816;9.278;2022-11-15T15:12:56;13.30;99.90
20345;DHT22;10330;48.816;9.278;2022-11-15T15:15:25;13.30;99.90
20345;DHT22;10330;48.816;9.278;2022-11-15T15:17:52;13.30;99.90
20345;DHT22;10330;48.816;9.278;2022-11-15T15:20:18;13.40;99.90
20345;DHT22;10330;48.816;9.278;2022-11-15T15:23:03;13.20;99.90
20345;DHT22;10330;48.816;9.278;2022-11-15T15:25:34;13.20;99.90
20345;DHT22;10330;48.816;9.278;2022-11-15T15:28:01;13.20;99.90
20345;DHT22;10330;48.816;9.278;2022-11-15T15:30:29;13.20;99.90
20345;DHT22;10330;48.816;9.278;2022-11-15T15:32:56;13.20;99.90
20345;DHT22;10330;48.816;9.278;2022-11-15T15:35:22;13.20;99.90
20345;DHT22;10330;48.816;9.278;2022-11-15T15:37:49;13.10;99.90
20345;DHT22;10330;48.816;9.278;2022-11-15T15:40:22;13.10;99.90
20345;DHT22;10330;48.816;9.278;2022-11-15T15:42:49;13.00;99.90
20345;DHT22;10330;48.816;9.278;2022-11-15T15:45:17;13.00;99.90
20345;DHT22;10330;48.816;9.278;2022-11-15T15:47:44;12.90;99.90
20345;DHT22;10330;48.816;9.278;2022-11-15T15:50:28;12.80;99.90
20345;DHT22;10330;48.816;9.278;2022-11-15T15:52:56;12.80;99.90
20345;DHT22;10330;48.816;9.278;2022-11-15T15:55:24;12.80;99.90
20345;DHT22;10330;48.816;9.278;2022-11-15T15:57:50;12.70;99.90
20345;DHT22;10330;48.816;9.278;2022-11-15T16:00:17;12.80;99.90
20345;DHT22;10330;48.816;9.278;2022-11-15T16:02:44;12.70;99.90
20345;DHT22;10330;48.816;9.278;2022-11-15T16:05:11;12.70;99.90
20345;DHT22;10330;48.816;9.278;2022-11-15T16:07:39;12.60;99.90
20345;DHT22;10330;48.816;9.278;2022-11-15T16:10:30;12.60;99.90
20345;DHT22;10330;48.816;9.278;2022-11-15T16:12:57;12.70;99.90
20345;DHT22;10330;48.816;9.278;2022-11-15T16:15:26;12.60;99.90
20345;DHT22;10330;48.816;9.278;2022-11-15T16:17:55;12.60;99.90
20345;DHT22;10330;48.816;9.278;2022-11-15T16:23:05;12.60;99.90
20345;DHT22;10330;48.816;9.278;2022-11-15T16:25:53;12.60;99.90
20345;DHT22;10330;48.816;9.278;2022-11-15T16:31:09;12.60;99.90
20345;DHT22;10330;48.816;9.278;2022-11-15T16:33:36;12.60;99.90
20345;DHT22;10330;48.816;9.278;2022-11-15T16:36:04;12.60;99.90
20345;DHT22;10330;48.816;9.278;2022-11-15T16:38:32;12.60;99.90
20345;DHT22;10330;48.816;9.278;2022-11-15T16:40:58;12.50;99.90
20345;DHT22;10330;48.816;9.278;2022-11-15T16:43:24;12.50;99.90
20345;DHT22;10330;48.816;9.278;2022-11-15T16:45:50;12.40;99.90
20345;DHT22;10330;48.816;9.278;2022-11-15T16:48:21;12.40;99.90
20345;DHT22;10330;48.816;9.278;2022-11-15T16:50:48;12.50;99.90
20345;DHT22;10330;48.816;9.278;2022-11-15T16:53:14;12.40;99.90
20345;DHT22;10330;48.816;9.278;2022-11-15T16:55:40;12.40;99.90
20345;DHT22;10330;48.816;9.278;2022-11-15T16:58:08;12.40;99.90
20345;DHT22;10330;48.816;9.278;2022-11-15T17:00:35;12.40;99.90
20345;DHT22;10330;48.816;9.278;2022-11-15T17:03:01;12.40;99.90
20345;DHT22;10330;48.816;9.278;2022-11-15T17:05:29;12.40;99.90
20345;DHT22;10330;48.816;9.278;2022-11-15T17:07:55;12.40;99.90
20345;DHT22;10330;48.816;9.278;2022-11-15T17:10:22;12.40;99.90
20345;DHT22;10330;48.816;9.278;2022-11-15T17:12:50;12.40;99.90
20345;DHT22;10330;48.816;9.278;2022-11-15T17:15:16;12.40;99.90
20345;DHT22;10330;48.816;9.278;2022-11-15T17:17:43;12.40;99.90
20345;DHT22;10330;48.816;9.278;2022-11-15T17:20:13;12.50;99.90
20345;DHT22;10330;48.816;9.278;2022-11-15T17:22:40;12.50;99.90
20345;DHT22;10330;48.816;9.278;2022-11-15T17:25:10;12.50;99.90
20345;DHT22;10330;48.816;9.278;2022-11-15T17:27:36;12.50;99.90
20345;DHT22;10330;48.816;9.278;2022-11-15T17:30:06;12.50;99.90
20345;DHT22;10330;48.816;9.278;2022-11-15T17:32:35;12.50;99.90
20345;DHT22;10330;48.816;9.278;2022-11-15T17:35:07;12.60;99.90
20345;DHT22;10330;48.816;9.278;2022-11-15T17:37:34;12.50;99.90
20345;DHT22;10330;48.816;9.278;2022-11-15T17:40:00;12.50;99.90
20345;DHT22;10330;48.816;9.278;2022-11-15T17:42:27;12.50;99.90
20345;DHT22;10330;48.816;9.278;2022-11-15T17:44:53;12.50;99.90
20345;DHT22;10330;48.816;9.278;2022-11-15T17:47:21;12.50;99.90
20345;DHT22;10330;48.816;9.278;2022-11-15T17:49:47;12.50;99.90
20345;DHT22;10330;48.816;9.278;2022-11-15T17:52:14;12.50;99.90
20345;DHT22;10330;48.816;9.278;2022-11-15T17:54:40;12.50;99.90
20345;DHT22;10330;48.816;9.278;2022-11-15T17:57:06;12.50;99.90
20345;DHT22;10330;48.816;9.278;2022-11-15T17:59:32;12.50;99.90
20345;DHT22;10330;48.816;9.278;2022-11-15T18:01:59;12.50;99.90
20345;DHT22;10330;48.816;9.278;2022-11-15T18:04:25;12.50;99.90
20345;DHT22;10330;48.816;9.278;2022-11-15T18:06:53;12.50;99.90
20345;DHT22;10330;48.816;9.278;2022-11-15T18:09:20;12.40;99.90
20345;DHT22;10330;48.816;9.278;2022-11-15T18:11:47;12.40;99.90
20345;DHT22;10330;48.816;9.278;2022-11-15T18:14:17;12.40;99.90
20345;DHT22;10330;48.816;9.278;2022-11-15T18:16:44;12.40;99.90
20345;DHT22;10330;48.816;9.278;2022-11-15T18:19:10;12.40;99.90
20345;DHT22;10330;48.816;9.278;2022-11-15T18:21:51;12.40;99.90
20345;DHT22;10330;48.816;9.278;2022-11-15T18:24:29;12.40;99.90
20345;DHT22;10330;48.816;9.278;2022-11-15T18:26:56;12.30;99.90
20345;DHT22;10330;48.816;9.278;2022-11-15T18:29:23;12.40;99.90
20345;DHT22;10330;48.816;9.278;2022-11-15T18:31:50;12.30;99.90
20345;DHT22;10330;48.816;9.278;2022-11-15T18:34:24;12.30;99.90
20345;DHT22;10330;48.816;9.278;2022-11-15T18:36:51;12.40;99.90
20345;DHT22;10330;48.816;9.278;2022-11-15T18:39:19;12.30;99.90
20345;DHT22;10330;48.816;9.278;2022-11-15T18:41:46;12.30;99.90
20345;DHT22;10330;48.816;9.278;2022-11-15T18:44:12;12.40;99.90
20345;DHT22;10330;48.816;9.278;2022-11-15T18:46:39;12.30;99.90
20345;DHT22;10330;48.816;9.278;2022-11-15T18:49:05;12.40;99.90
20345;DHT22;10330;48.816;9.278;2022-11-15T18:51:35;12.40;99.90
20345;DHT22;10330;48.816;9.278;2022-11-15T18:54:02;12.30;99.90
20345;DHT22;10330;48.816;9.278;2022-11-15T18:56:30;12.40;99.90
20345;DHT22;10330;48.816;9.278;2022-11-15T18:58:58;12.40;99.90
20345;DHT22;10330;48.816;9.278;2022-11-15T19:01:33;12.40;99.90
20345;DHT22;10330;48.816;9.278;2022-11-15T19:04:13;12.40;99.90
20345;DHT22;10330;48.816;9.278;2022-11-15T19:06:42;12.50;99.90
20345;DHT22;10330;48.816;9.278;2022-11-15T19:09:10;12.40;99.90
20345;DHT22;10330;48.816;9.278;2022-11-15T19:11:38;12.40;99.90
20345;DHT22;10330;48.816;9.278;2022-11-15T19:14:07;12.40;99.90
20345;DHT22;10330;48.816;9.278;2022-11-15T19:16:42;12.40;99.90
20345;DHT22;10330;48.816;9.278;2022-11-15T19:19:20;12.30;99.90
20345;DHT22;10330;48.816;9.278;2022-11-15T19:21:47;12.30;99.90